Time;durP1;ratioP1;P1;durP2;ratioP2;P2;SDS_P1;SDS_P2;PMS_P1;PMS_P2;Temp;Humidity;BMP_temperature;BMP_pressure;BME280_temperature;BME280_humidity;BME280_pressure;Samples;Min_cycle;Max_cycle;Signal;HPM_P1;HPM_P2
2023/04/13 00:01:36;;;;;;;1.24;0.20;;;;;;;;;;5283754;28;20476;-72
2023/04/13 00:04:08;;;;;;;3.36;0.48;;;;;;;;;;5283631;28;20466;-71
2023/04/13 00:06:41;;;;;;;2.15;0.20;;;;;;;;;;5282793;28;20017;-70
2023/04/13 00:09:13;;;;;;;3.30;0.30;;;;;;;;;;5283749;28;20036;-71
2023/04/13 00:11:45;;;;;;;1.38;0.10;;;;;;;;;;5283023;28;20024;-71
2023/04/13 00:14:20;;;;;;;1.27;0.10;;;;;;;;;;5283000;28;20020;-71
2023/04/13 00:16:51;;;;;;;1.23;0.38;;;;;;;;;;5283116;28;20021;-71
2023/04/13 00:19:22;;;;;;;1.27;0.20;;;;;;;;;;5282939;28;20478;-71
2023/04/13 00:21:54;;;;;;;1.17;0.10;;;;;;;;;;5283174;28;20457;-72
2023/04/13 00:24:25;;;;;;;4.32;0.30;;;;;;;;;;5282828;28;20064;-71
2023/04/13 00:26:57;;;;;;;1.08;0.20;;;;;;;;;;5281479;28;20029;-71
2023/04/13 00:29:28;;;;;;;1.23;0.20;;;;;;;;;;5283306;28;20471;-72
2023/04/13 00:32:00;;;;;;;3.20;0.35;;;;;;;;;;5282347;28;20066;-73
2023/04/13 00:34:31;;;;;;;2.90;0.20;;;;;;;;;;5281930;28;20024;-72
2023/04/13 00:37:02;;;;;;;2.45;0.30;;;;;;;;;;5282616;28;20020;-72
2023/04/13 00:39:34;;;;;;;4.38;0.30;;;;;;;;;;5282232;28;20021;-72
2023/04/13 00:42:07;;;;;;;2.40;0.20;;;;;;;;;;5282021;28;20021;-72
2023/04/13 00:44:38;;;;;;;3.75;0.20;;;;;;;;;;5281905;28;20094;-72
2023/04/13 00:47:11;;;;;;;2.35;0.20;;;;;;;;;;5282569;28;20439;-72
2023/04/13 00:49:42;;;;;;;2.25;0.20;;;;;;;;;;5281010;28;20020;-72
2023/04/13 00:52:14;;;;;;;3.40;0.22;;;;;;;;;;5282466;28;20046;-72
2023/04/13 00:54:47;;;;;;;2.60;0.43;;;;;;;;;;5281187;28;20016;-71
2023/04/13 00:57:18;;;;;;;0.88;0.10;;;;;;;;;;5282712;28;20054;-71
2023/04/13 00:59:51;;;;;;;2.67;0.30;;;;;;;;;;5281765;28;20028;-71
2023/04/13 01:02:23;;;;;;;2.85;0.20;;;;;;;;;;5281473;28;20324;-71
2023/04/13 01:04:54;;;;;;;2.78;0.25;;;;;;;;;;5282112;28;20028;-71
2023/04/13 01:07:32;;;;;;;1.80;0.25;;;;;;;;;;5282254;28;20096;-71
2023/04/13 01:10:07;;;;;;;4.07;0.20;;;;;;;;;;5281115;28;20099;-71
2023/04/13 01:12:47;;;;;;;3.38;0.30;;;;;;;;;;5281262;28;20104;-72
2023/04/13 01:15:19;;;;;;;2.58;0.22;;;;;;;;;;5282254;28;20020;-71
2023/04/13 01:17:55;;;;;;;2.45;0.22;;;;;;;;;;5280642;28;20021;-71
2023/04/13 01:20:27;;;;;;;3.08;0.30;;;;;;;;;;5282000;28;20040;-71
2023/04/13 01:23:00;;;;;;;3.00;0.30;;;;;;;;;;5279914;28;20044;-71
2023/04/13 01:25:31;;;;;;;3.58;0.35;;;;;;;;;;5281571;28;20032;-72
2023/04/13 01:28:04;;;;;;;3.25;0.30;;;;;;;;;;5281665;28;20035;-71
2023/04/13 01:30:36;;;;;;;2.60;0.30;;;;;;;;;;5280865;28;20074;-72
2023/04/13 01:33:08;;;;;;;4.32;0.60;;;;;;;;;;5281622;28;20048;-71
2023/04/13 01:35:39;;;;;;;3.40;0.20;;;;;;;;;;5281081;28;20066;-72
2023/04/13 01:38:11;;;;;;;3.35;0.38;;;;;;;;;;5281342;28;20436;-71
2023/04/13 01:40:43;;;;;;;3.70;0.38;;;;;;;;;;5281065;28;20016;-72
2023/04/13 01:43:14;;;;;;;5.20;0.73;;;;;;;;;;5281668;28;20016;-72
2023/04/13 01:45:59;;;;;;;1.65;0.22;;;;;;;;;;5280347;28;20071;-73
2023/04/13 01:48:31;;;;;;;3.38;0.20;;;;;;;;;;5281406;28;20020;-72
2023/04/13 01:51:02;;;;;;;2.08;0.30;;;;;;;;;;5280629;28;20489;-72
2023/04/13 01:53:40;;;;;;;3.67;0.32;;;;;;;;;;5281333;28;20039;-72
2023/04/13 01:56:14;;;;;;;2.72;0.60;;;;;;;;;;5281571;28;20013;-72
2023/04/13 01:58:48;;;;;;;3.22;0.40;;;;;;;;;;5280079;28;20051;-72
2023/04/13 02:01:20;;;;;;;4.20;0.25;;;;;;;;;;5281904;28;20108;-71
2023/04/13 02:03:51;;;;;;;3.58;0.50;;;;;;;;;;5281183;28;20099;-70
2023/04/13 02:06:23;;;;;;;4.03;0.30;;;;;;;;;;5281067;28;20104;-70
2023/04/13 02:08:54;;;;;;;3.22;0.50;;;;;;;;;;5281119;28;20020;-71
2023/04/13 02:11:27;;;;;;;3.55;0.50;;;;;;;;;;5281533;28;20095;-70
2023/04/13 02:13:58;;;;;;;6.10;0.40;;;;;;;;;;5280223;28;20025;-70
2023/04/13 02:16:29;;;;;;;2.00;0.25;;;;;;;;;;5281251;28;20039;-74
2023/04/13 02:19:00;;;;;;;4.00;0.40;;;;;;;;;;5280624;28;20040;-71
2023/04/13 02:21:33;;;;;;;2.63;0.73;;;;;;;;;;5281022;28;20408;-71
2023/04/13 02:24:05;;;;;;;3.45;0.40;;;;;;;;;;5280870;28;20395;-71
2023/04/13 02:26:36;;;;;;;2.33;0.30;;;;;;;;;;5280730;28;20043;-72
2023/04/13 02:29:08;;;;;;;3.55;0.30;;;;;;;;;;5281467;28;20025;-71
2023/04/13 02:31:42;;;;;;;4.13;0.40;;;;;;;;;;5281230;28;20033;-71
2023/04/13 02:34:14;;;;;;;1.40;0.20;;;;;;;;;;5283611;28;20020;-71
2023/04/13 02:36:45;;;;;;;2.90;0.30;;;;;;;;;;5285077;28;20020;-72
2023/04/13 02:39:17;;;;;;;2.47;0.30;;;;;;;;;;5285941;28;20470;-71
2023/04/13 02:41:48;;;;;;;3.50;0.40;;;;;;;;;;5284183;28;20025;-71
2023/04/13 02:44:19;;;;;;;4.00;0.30;;;;;;;;;;5285357;28;20401;-72
2023/04/13 02:46:51;;;;;;;1.63;0.30;;;;;;;;;;5285269;28;20413;-73
2023/04/13 02:49:22;;;;;;;2.75;0.43;;;;;;;;;;5285223;28;20020;-72
2023/04/13 02:51:53;;;;;;;3.08;0.63;;;;;;;;;;5284622;28;20078;-73
2023/04/13 02:54:25;;;;;;;1.40;0.30;;;;;;;;;;5284126;28;20032;-72
2023/04/13 02:56:56;;;;;;;2.92;0.63;;;;;;;;;;5284712;28;20047;-73
2023/04/13 02:59:27;;;;;;;2.38;0.30;;;;;;;;;;5285168;28;20024;-73
2023/04/13 03:02:00;;;;;;;2.95;0.30;;;;;;;;;;5283398;28;20047;-74
2023/04/13 03:04:31;;;;;;;3.78;0.40;;;;;;;;;;5284521;28;20086;-74
2023/04/13 03:07:08;;;;;;;2.45;0.30;;;;;;;;;;5284356;28;20017;-72
2023/04/13 03:09:39;;;;;;;1.13;0.28;;;;;;;;;;5283138;28;20021;-73
2023/04/13 03:12:11;;;;;;;2.40;0.20;;;;;;;;;;5284700;28;20336;-72
2023/04/13 03:14:42;;;;;;;1.88;0.22;;;;;;;;;;5283917;28;20012;-72
2023/04/13 03:17:13;;;;;;;1.92;0.10;;;;;;;;;;5284006;28;20119;-72
2023/04/13 03:19:46;;;;;;;1.25;0.15;;;;;;;;;;5284094;28;20020;-72
2023/04/13 03:22:17;;;;;;;3.08;0.30;;;;;;;;;;5283588;28;20028;-72
2023/04/13 03:24:49;;;;;;;1.45;0.20;;;;;;;;;;5284437;28;20043;-72
2023/04/13 03:27:21;;;;;;;2.00;0.22;;;;;;;;;;5284972;28;20041;-72
2023/04/13 03:29:53;;;;;;;1.98;0.40;;;;;;;;;;5283338;28;20031;-72
2023/04/13 03:32:24;;;;;;;2.94;0.38;;;;;;;;;;5284705;28;20025;-72
2023/04/13 03:34:55;;;;;;;2.28;0.40;;;;;;;;;;5284191;28;20051;-71
2023/04/13 03:37:28;;;;;;;3.05;0.50;;;;;;;;;;5283454;28;20084;-72
2023/04/13 03:40:00;;;;;;;2.15;0.60;;;;;;;;;;5283440;28;20379;-71
2023/04/13 03:42:31;;;;;;;6.70;1.30;;;;;;;;;;5283576;28;20025;-72
2023/04/13 03:45:05;;;;;;;2.20;0.60;;;;;;;;;;5281865;28;20036;-71
2023/04/13 03:47:37;;;;;;;2.30;0.68;;;;;;;;;;5283570;28;20013;-71
2023/04/13 03:50:09;;;;;;;4.15;0.80;;;;;;;;;;5283726;28;20042;-71
2023/04/13 03:52:40;;;;;;;4.38;0.70;;;;;;;;;;5282431;28;20039;-72
2023/04/13 03:55:12;;;;;;;3.05;0.57;;;;;;;;;;5283982;28;20126;-71
2023/04/13 03:57:43;;;;;;;2.83;0.75;;;;;;;;;;5282938;28;20416;-71
2023/04/13 04:00:14;;;;;;;3.08;0.98;;;;;;;;;;5283666;28;20055;-71
2023/04/13 04:02:46;;;;;;;2.47;0.93;;;;;;;;;;5282885;28;20070;-72
2023/04/13 04:05:17;;;;;;;6.38;1.00;;;;;;;;;;5282505;28;20068;-71
2023/04/13 04:07:48;;;;;;;3.63;1.42;;;;;;;;;;5282695;28;20581;-70
2023/04/13 04:10:19;;;;;;;1.92;0.93;;;;;;;;;;5283315;28;20016;-71
2023/04/13 04:12:51;;;;;;;3.30;0.93;;;;;;;;;;5282122;28;20024;-71
2023/04/13 04:15:22;;;;;;;3.65;0.90;;;;;;;;;;5283627;28;20017;-71
2023/04/13 04:17:58;;;;;;;3.15;0.98;;;;;;;;;;5283106;28;20523;-72
2023/04/13 04:20:29;;;;;;;4.35;1.55;;;;;;;;;;5282559;28;20027;-72
2023/04/13 04:23:03;;;;;;;4.00;0.90;;;;;;;;;;5283673;28;20422;-71
2023/04/13 04:25:36;;;;;;;4.65;0.98;;;;;;;;;;5282310;28;20036;-71
2023/04/13 04:28:08;;;;;;;4.18;0.93;;;;;;;;;;5282893;28;20047;-70
2023/04/13 04:30:39;;;;;;;4.57;1.35;;;;;;;;;;5283233;28;20020;-72
2023/04/13 04:33:11;;;;;;;2.10;0.68;;;;;;;;;;5282615;28;20111;-71
2023/04/13 04:35:48;;;;;;;4.18;0.93;;;;;;;;;;5282331;28;20024;-71
2023/04/13 04:38:21;;;;;;;3.95;0.90;;;;;;;;;;5282686;28;20021;-71
2023/04/13 04:40:56;;;;;;;3.33;0.75;;;;;;;;;;5281230;28;20104;-71
2023/04/13 04:43:29;;;;;;;3.80;1.20;;;;;;;;;;5282406;28;20012;-71
2023/04/13 04:46:03;;;;;;;4.38;1.05;;;;;;;;;;5282351;28;20047;-71
2023/04/13 04:48:36;;;;;;;3.25;1.00;;;;;;;;;;5281503;28;20029;-71
2023/04/13 04:51:07;;;;;;;4.15;1.20;;;;;;;;;;5282156;28;20095;-70
2023/04/13 04:53:38;;;;;;;3.25;0.95;;;;;;;;;;5281237;28;20515;-71
2023/04/13 04:56:09;;;;;;;4.22;1.17;;;;;;;;;;5282724;28;20028;-71
2023/04/13 04:58:41;;;;;;;6.93;1.50;;;;;;;;;;5281662;28;20016;-71
2023/04/13 05:01:12;;;;;;;3.28;1.35;;;;;;;;;;5281422;28;20155;-71
2023/04/13 05:03:43;;;;;;;4.82;1.00;;;;;;;;;;5281778;28;20395;-72
2023/04/13 05:06:15;;;;;;;2.33;1.25;;;;;;;;;;5282119;28;20441;-71
2023/04/13 05:08:46;;;;;;;3.95;1.27;;;;;;;;;;5280802;28;20058;-72
2023/04/13 05:11:17;;;;;;;5.32;1.52;;;;;;;;;;5282252;28;20522;-73
2023/04/13 05:13:48;;;;;;;3.30;1.38;;;;;;;;;;5281686;28;20025;-71
2023/04/13 05:16:19;;;;;;;4.57;1.55;;;;;;;;;;5281907;28;20024;-71
2023/04/13 05:18:51;;;;;;;4.80;1.58;;;;;;;;;;5281899;28;20077;-72
2023/04/13 05:21:22;;;;;;;3.72;1.40;;;;;;;;;;5282377;28;20017;-72
2023/04/13 05:23:53;;;;;;;2.22;1.20;;;;;;;;;;5280694;28;20059;-72
2023/04/13 05:26:24;;;;;;;3.65;1.30;;;;;;;;;;5281775;28;20024;-71
2023/04/13 05:28:55;;;;;;;5.32;1.38;;;;;;;;;;5280413;28;20482;-72
2023/04/13 05:31:27;;;;;;;3.75;1.00;;;;;;;;;;5281758;28;20099;-72
2023/04/13 05:33:58;;;;;;;4.88;1.77;;;;;;;;;;5281060;28;20026;-72
2023/04/13 05:36:31;;;;;;;4.95;1.10;;;;;;;;;;5280488;28;20028;-73
2023/04/13 05:39:03;;;;;;;3.03;0.80;;;;;;;;;;5281352;28;20436;-72
2023/04/13 05:41:34;;;;;;;2.53;0.60;;;;;;;;;;5281390;28;20028;-72
2023/04/13 05:44:05;;;;;;;2.92;0.60;;;;;;;;;;5280818;28;20413;-72
2023/04/13 05:46:36;;;;;;;5.20;0.90;;;;;;;;;;5281434;28;20016;-72
2023/04/13 05:49:08;;;;;;;2.30;0.50;;;;;;;;;;5281435;28;20028;-71
2023/04/13 05:51:39;;;;;;;4.13;0.70;;;;;;;;;;5280636;28;20474;-73
2023/04/13 05:54:12;;;;;;;1.73;0.50;;;;;;;;;;5281896;28;20021;-72
2023/04/13 05:56:43;;;;;;;3.10;0.45;;;;;;;;;;5281295;28;20386;-72
2023/04/13 05:59:15;;;;;;;2.08;0.50;;;;;;;;;;5280923;28;20020;-71
2023/04/13 06:01:46;;;;;;;3.03;0.82;;;;;;;;;;5281228;28;20013;-71
2023/04/13 06:04:18;;;;;;;3.47;0.85;;;;;;;;;;5280719;28;20062;-72
2023/04/13 06:06:49;;;;;;;3.83;0.90;;;;;;;;;;5280968;28;20382;-73
2023/04/13 06:09:21;;;;;;;2.40;0.40;;;;;;;;;;5286328;28;20028;-73
2023/04/13 06:11:53;;;;;;;3.60;0.38;;;;;;;;;;5286979;28;20035;-73
2023/04/13 06:14:24;;;;;;;1.92;0.40;;;;;;;;;;5287937;28;20029;-73
2023/04/13 06:16:56;;;;;;;1.45;0.40;;;;;;;;;;5287251;28;20066;-73
2023/04/13 06:19:27;;;;;;;2.60;0.60;;;;;;;;;;5287569;28;20078;-74
2023/04/13 06:21:58;;;;;;;2.30;0.48;;;;;;;;;;5287737;28;20035;-73
2023/04/13 06:24:29;;;;;;;2.03;0.50;;;;;;;;;;5287582;28;20056;-74
2023/04/13 06:27:01;;;;;;;2.90;0.50;;;;;;;;;;5287166;28;20025;-72
2023/04/13 06:29:32;;;;;;;7.07;1.70;;;;;;;;;;5288126;28;20483;-71
2023/04/13 06:32:03;;;;;;;2.58;0.52;;;;;;;;;;5287228;28;20024;-74
2023/04/13 06:34:35;;;;;;;2.20;0.50;;;;;;;;;;5287724;28;20103;-72
2023/04/13 06:37:06;;;;;;;2.63;0.40;;;;;;;;;;5287730;28;20040;-71
2023/04/13 06:39:38;;;;;;;2.17;0.40;;;;;;;;;;5287221;28;20039;-72
2023/04/13 06:42:09;;;;;;;3.35;0.40;;;;;;;;;;5288061;28;20024;-72
2023/04/13 06:44:41;;;;;;;4.03;0.50;;;;;;;;;;5287076;28;20036;-73
2023/04/13 06:47:12;;;;;;;2.88;0.50;;;;;;;;;;5287212;28;20478;-72
2023/04/13 06:49:43;;;;;;;2.22;0.43;;;;;;;;;;5287120;28;20024;-73
2023/04/13 06:52:15;;;;;;;3.38;0.60;;;;;;;;;;5287809;28;20051;-74
2023/04/13 06:54:46;;;;;;;3.10;0.60;;;;;;;;;;5286347;28;20017;-74
2023/04/13 06:57:17;;;;;;;4.08;0.60;;;;;;;;;;5288070;28;20012;-73
2023/04/13 06:59:48;;;;;;;3.40;0.80;;;;;;;;;;5287164;28;20020;-72
2023/04/13 07:02:20;;;;;;;2.90;0.50;;;;;;;;;;5287094;28;20065;-72
2023/04/13 07:04:51;;;;;;;3.92;1.15;;;;;;;;;;5287584;28;20029;-73
2023/04/13 07:07:22;;;;;;;2.75;0.50;;;;;;;;;;5287623;28;20024;-72
2023/04/13 07:09:53;;;;;;;4.78;0.70;;;;;;;;;;5287703;28;20024;-73
2023/04/13 07:12:25;;;;;;;4.03;1.10;;;;;;;;;;5287960;28;20027;-72
2023/04/13 07:14:56;;;;;;;2.95;0.40;;;;;;;;;;5286462;28;20024;-73
2023/04/13 07:17:27;;;;;;;5.08;0.80;;;;;;;;;;5288143;28;20029;-73
2023/04/13 07:19:58;;;;;;;4.38;1.13;;;;;;;;;;5284923;28;20020;-73
2023/04/13 07:22:31;;;;;;;3.50;0.60;;;;;;;;;;5283606;28;20074;-72
2023/04/13 07:25:02;;;;;;;4.05;0.65;;;;;;;;;;5284130;28;20131;-72
2023/04/13 07:27:34;;;;;;;5.40;0.93;;;;;;;;;;5284307;28;20135;-73
2023/04/13 07:30:07;;;;;;;3.25;0.63;;;;;;;;;;5283349;28;20072;-72
2023/04/13 07:32:39;;;;;;;4.35;0.52;;;;;;;;;;5283730;28;20087;-73
2023/04/13 07:35:10;;;;;;;5.75;0.80;;;;;;;;;;5283951;28;20355;-72
2023/04/13 07:37:41;;;;;;;4.05;0.60;;;;;;;;;;5283057;28;20019;-73
2023/04/13 07:40:14;;;;;;;3.65;0.63;;;;;;;;;;5284317;28;20063;-72
2023/04/13 07:42:48;;;;;;;8.00;0.98;;;;;;;;;;5282866;28;20096;-71
2023/04/13 07:45:19;;;;;;;7.20;1.08;;;;;;;;;;5284244;28;20021;-72
2023/04/13 07:47:53;;;;;;;4.82;0.88;;;;;;;;;;5283855;28;20013;-72
2023/04/13 07:50:24;;;;;;;5.50;0.80;;;;;;;;;;5283713;28;20466;-72
2023/04/13 07:52:55;;;;;;;7.80;0.90;;;;;;;;;;5283511;28;20036;-72
2023/04/13 07:55:26;;;;;;;6.25;0.80;;;;;;;;;;5283666;28;20058;-72
2023/04/13 07:57:58;;;;;;;5.03;0.90;;;;;;;;;;5282777;28;20036;-73
2023/04/13 08:00:30;;;;;;;6.35;0.80;;;;;;;;;;5283826;28;20025;-73
2023/04/13 08:03:01;;;;;;;6.32;1.10;;;;;;;;;;5274179;28;20035;-72
2023/04/13 08:05:44;;;;;;;;;;;;;;;;;;;;;
2023/04/13 08:08:15;;;;;;;6.28;1.20;;;;;;;;;;5279220;28;20028;-72
2023/04/13 08:10:47;;;;;;;5.00;0.90;;;;;;;;;;5281769;28;20092;-73
2023/04/13 08:13:18;;;;;;;8.07;1.63;;;;;;;;;;5282842;28;20031;-71
2023/04/13 08:15:49;;;;;;;8.20;1.20;;;;;;;;;;5281839;28;20047;-69
2023/04/13 08:18:20;;;;;;;5.60;1.20;;;;;;;;;;5282109;28;20382;-73
2023/04/13 08:20:53;;;;;;;6.88;1.16;;;;;;;;;;5281956;28;20029;-72
2023/04/13 08:23:26;;;;;;;7.20;1.00;;;;;;;;;;5282666;28;20044;-72
2023/04/13 08:26:01;;;;;;;8.48;1.30;;;;;;;;;;5281304;28;20025;-70
2023/04/13 08:28:32;;;;;;;8.18;1.40;;;;;;;;;;5282370;28;20032;-73
2023/04/13 08:31:04;;;;;;;9.18;1.40;;;;;;;;;;5281487;28;20036;-72
2023/04/13 08:33:35;;;;;;;6.45;1.52;;;;;;;;;;5282415;28;20063;-70
2023/04/13 08:36:06;;;;;;;10.73;1.50;;;;;;;;;;5268147;28;20096;-72
2023/04/13 08:38:37;;;;;;;7.55;1.30;;;;;;;;;;5260940;28;20063;-72
2023/04/13 08:41:09;;;;;;;9.13;1.30;;;;;;;;;;5261137;28;20036;-72
2023/04/13 08:43:41;;;;;;;9.55;1.73;;;;;;;;;;5260562;28;20108;-73
2023/04/13 08:46:18;;;;;;;6.13;1.15;;;;;;;;;;5259578;28;20031;-71
2023/04/13 08:48:50;;;;;;;5.55;1.60;;;;;;;;;;5258008;28;20025;-71
2023/04/13 08:51:21;;;;;;;7.18;1.02;;;;;;;;;;5260033;28;20031;-71
2023/04/13 08:53:53;;;;;;;7.63;1.10;;;;;;;;;;5258649;28;20021;-71
2023/04/13 08:56:25;;;;;;;7.55;1.23;;;;;;;;;;5259691;28;20017;-72
2023/04/13 08:59:04;;;;;;;7.03;1.27;;;;;;;;;;5259755;28;20412;-70
2023/04/13 09:01:36;;;;;;;7.13;1.00;;;;;;;;;;5260165;28;20021;-71
2023/04/13 09:04:09;;;;;;;6.55;0.80;;;;;;;;;;5261134;28;20082;-71
2023/04/13 09:06:41;;;;;;;8.40;0.80;;;;;;;;;;5260983;28;20044;-72
2023/04/13 09:09:13;;;;;;;6.47;0.60;;;;;;;;;;5261732;28;20060;-72
2023/04/13 09:11:44;;;;;;;5.65;1.17;;;;;;;;;;5261002;28;20021;-72
2023/04/13 09:14:19;;;;;;;8.95;1.52;;;;;;;;;;5261138;28;20017;-71
2023/04/13 09:16:50;;;;;;;6.70;0.80;;;;;;;;;;5260895;28;20070;-72
2023/04/13 09:19:31;;;;;;;6.95;0.63;;;;;;;;;;5261815;28;20009;-71
2023/04/13 09:22:12;;;;;;;3.83;0.80;;;;;;;;;;5260498;28;20031;-72
2023/04/13 09:24:43;;;;;;;5.13;0.90;;;;;;;;;;5260741;28;20518;-72
2023/04/13 09:27:22;;;;;;;7.78;1.05;;;;;;;;;;5261822;28;20020;-71
2023/04/13 09:29:54;;;;;;;10.53;0.90;;;;;;;;;;5260454;28;20472;-71
2023/04/13 09:32:26;;;;;;;7.28;1.33;;;;;;;;;;5261573;28;20342;-71
2023/04/13 09:34:58;;;;;;;8.88;1.20;;;;;;;;;;5259622;28;20082;-72
2023/04/13 09:37:31;;;;;;;6.57;0.82;;;;;;;;;;5260749;28;20024;-70
2023/04/13 09:40:09;;;;;;;6.95;0.80;;;;;;;;;;5260854;28;20033;-70
2023/04/13 09:42:41;;;;;;;8.02;1.35;;;;;;;;;;5259147;28;20017;-73
2023/04/13 09:45:12;;;;;;;5.10;0.73;;;;;;;;;;5260962;28;20028;-73
2023/04/13 09:47:44;;;;;;;6.03;0.90;;;;;;;;;;5260890;28;20040;-72
2023/04/13 09:50:23;;;;;;;5.70;0.60;;;;;;;;;;5260082;28;20272;-71
2023/04/13 09:52:57;;;;;;;6.55;0.82;;;;;;;;;;5260379;28;20052;-71
2023/04/13 09:55:31;;;;;;;9.55;1.17;;;;;;;;;;5260952;28;20103;-70
2023/04/13 09:58:13;;;;;;;6.13;0.85;;;;;;;;;;5260193;28;20029;-72
2023/04/13 10:00:45;;;;;;;5.18;0.75;;;;;;;;;;5260506;28;20021;-71
2023/04/13 10:03:21;;;;;;;6.10;0.85;;;;;;;;;;5260284;28;20091;-72
2023/04/13 10:05:52;;;;;;;10.95;1.70;;;;;;;;;;5259789;28;20083;-72
2023/04/13 10:08:24;;;;;;;6.75;1.20;;;;;;;;;;5260603;28;20447;-72
2023/04/13 10:10:57;;;;;;;5.95;1.30;;;;;;;;;;5259282;28;20092;-73
2023/04/13 10:13:32;;;;;;;5.35;1.10;;;;;;;;;;5260451;28;20021;-73
2023/04/13 10:16:22;;;;;;;9.38;1.45;;;;;;;;;;5260427;28;20111;-73
2023/04/13 10:19:00;;;;;;;8.15;1.58;;;;;;;;;;5259082;28;20446;-72
2023/04/13 10:21:34;;;;;;;9.80;1.40;;;;;;;;;;5260144;28;20029;-74
2023/04/13 10:24:06;;;;;;;6.20;1.05;;;;;;;;;;5259095;28;20337;-73
2023/04/13 10:26:40;;;;;;;8.55;1.63;;;;;;;;;;5259452;28;20543;-73
2023/04/13 10:29:13;;;;;;;5.13;1.48;;;;;;;;;;5260033;28;20025;-75
2023/04/13 10:31:45;;;;;;;7.90;1.70;;;;;;;;;;5259149;28;20025;-73
2023/04/13 10:34:24;;;;;;;6.43;1.48;;;;;;;;;;5260562;28;20020;-73
2023/04/13 10:37:02;;;;;;;8.25;1.27;;;;;;;;;;5259625;28;20023;-73
2023/04/13 10:39:34;;;;;;;6.90;1.10;;;;;;;;;;5259295;28;20021;-75
2023/04/13 10:42:08;;;;;;;6.10;1.55;;;;;;;;;;5275110;28;20023;-73
2023/04/13 10:44:49;;;;;;;8.07;1.50;;;;;;;;;;5266088;28;20557;-72
2023/04/13 10:47:20;;;;;;;9.55;1.65;;;;;;;;;;5279355;28;20383;-70
2023/04/13 10:49:51;;;;;;;7.40;1.50;;;;;;;;;;5279926;28;20110;-72
2023/04/13 10:52:22;;;;;;;5.30;1.33;;;;;;;;;;5280487;28;20434;-73
2023/04/13 10:54:54;;;;;;;8.68;1.48;;;;;;;;;;5278270;28;20107;-72
2023/04/13 10:57:32;;;;;;;5.07;0.95;;;;;;;;;;5283684;28;20027;-73
2023/04/13 11:00:14;;;;;;;7.65;1.30;;;;;;;;;;5283751;28;20117;-72
2023/04/13 11:02:45;;;;;;;9.00;1.00;;;;;;;;;;5284153;28;20071;-72
2023/04/13 11:05:18;;;;;;;8.68;1.30;;;;;;;;;;5285010;28;20467;-74
2023/04/13 11:07:50;;;;;;;5.18;0.65;;;;;;;;;;5283128;28;20547;-72
2023/04/13 11:10:25;;;;;;;6.32;0.80;;;;;;;;;;5282953;28;20016;-72
2023/04/13 11:12:57;;;;;;;5.40;0.90;;;;;;;;;;5282056;28;20017;-73
2023/04/13 11:15:29;;;;;;;3.90;0.60;;;;;;;;;;5281874;28;20382;-72
2023/04/13 11:18:02;;;;;;;6.15;0.73;;;;;;;;;;5282084;28;20023;-72
2023/04/13 11:20:34;;;;;;;6.38;0.70;;;;;;;;;;5281370;28;20534;-73
2023/04/13 11:23:12;;;;;;;4.30;0.77;;;;;;;;;;5282471;28;20132;-72
2023/04/13 11:26:00;;;;;;;5.20;0.60;;;;;;;;;;5283870;28;20036;-72
2023/04/13 11:28:39;;;;;;;4.47;0.77;;;;;;;;;;5283634;28;20033;-73
2023/04/13 11:31:10;;;;;;;4.95;0.70;;;;;;;;;;5284196;28;20020;-72
2023/04/13 11:33:43;;;;;;;7.85;1.13;;;;;;;;;;5283524;28;20013;-73
2023/04/13 11:36:18;;;;;;;7.47;0.90;;;;;;;;;;5283735;28;20031;-73
2023/04/13 11:38:51;;;;;;;5.97;0.93;;;;;;;;;;5283858;28;20158;-72
2023/04/13 11:41:22;;;;;;;6.97;0.80;;;;;;;;;;5284453;28;20020;-72
2023/04/13 11:43:53;;;;;;;7.28;0.82;;;;;;;;;;5282646;28;20043;-73
2023/04/13 11:46:25;;;;;;;5.00;0.98;;;;;;;;;;5284744;28;20070;-73
2023/04/13 11:48:57;;;;;;;5.28;0.85;;;;;;;;;;5282740;28;20025;-73
2023/04/13 11:51:29;;;;;;;6.28;0.90;;;;;;;;;;5283757;28;20029;-73
2023/04/13 11:54:01;;;;;;;6.32;0.65;;;;;;;;;;5283278;28;20371;-72
2023/04/13 11:56:32;;;;;;;8.25;1.58;;;;;;;;;;5282372;28;20020;-71
2023/04/13 11:59:07;;;;;;;5.38;0.77;;;;;;;;;;5282901;28;20460;-72
2023/04/13 12:01:39;;;;;;;8.18;1.08;;;;;;;;;;5283156;28;20356;-72
2023/04/13 12:04:12;;;;;;;4.45;0.80;;;;;;;;;;5272917;28;20021;-72
2023/04/13 12:06:44;;;;;;;5.25;0.60;;;;;;;;;;5280226;28;20082;-72
2023/04/13 12:09:15;;;;;;;4.28;0.52;;;;;;;;;;5282417;28;20013;-72
2023/04/13 12:11:52;;;;;;;7.30;0.65;;;;;;;;;;5280965;28;20382;-73
2023/04/13 12:14:23;;;;;;;7.13;0.82;;;;;;;;;;5282281;28;20103;-72
2023/04/13 12:16:56;;;;;;;3.88;0.65;;;;;;;;;;5280481;28;20179;-72
2023/04/13 12:19:27;;;;;;;4.97;0.50;;;;;;;;;;5281489;28;20028;-73
2023/04/13 12:21:58;;;;;;;4.97;0.60;;;;;;;;;;5281124;28;20025;-73
2023/04/13 12:24:30;;;;;;;3.10;0.50;;;;;;;;;;5280272;28;20306;-72
2023/04/13 12:27:02;;;;;;;3.40;0.50;;;;;;;;;;5281681;28;20254;-72
2023/04/13 12:29:38;;;;;;;3.60;0.47;;;;;;;;;;5281354;28;20067;-72
2023/04/13 12:32:13;;;;;;;4.00;0.57;;;;;;;;;;5280327;28;20020;-73
2023/04/13 12:34:44;;;;;;;4.30;0.60;;;;;;;;;;5280839;28;20028;-72
2023/04/13 12:37:15;;;;;;;6.33;0.60;;;;;;;;;;5282147;28;20023;-72
2023/04/13 12:39:46;;;;;;;3.83;0.50;;;;;;;;;;5280364;28;20279;-72
2023/04/13 12:42:17;;;;;;;3.70;0.60;;;;;;;;;;5281487;28;20009;-72
2023/04/13 12:44:50;;;;;;;3.85;0.55;;;;;;;;;;5278219;28;20800;-71
2023/04/13 12:47:23;;;;;;;4.75;0.55;;;;;;;;;;5262794;28;20274;-72
2023/04/13 12:49:55;;;;;;;4.40;0.50;;;;;;;;;;5259512;28;20013;-72
2023/04/13 12:52:28;;;;;;;4.75;0.50;;;;;;;;;;5259403;28;20013;-72
2023/04/13 12:54:59;;;;;;;5.90;0.60;;;;;;;;;;5260240;28;20127;-72
2023/04/13 12:57:31;;;;;;;4.00;0.60;;;;;;;;;;5259906;28;20111;-72
2023/04/13 13:00:07;;;;;;;2.58;0.40;;;;;;;;;;5260733;28;20044;-72
2023/04/13 13:02:38;;;;;;;7.15;0.57;;;;;;;;;;5260734;28;20074;-70
2023/04/13 13:05:10;;;;;;;6.38;0.73;;;;;;;;;;5260067;28;20029;-71
2023/04/13 13:07:42;;;;;;;3.10;0.70;;;;;;;;;;5259407;28;20102;-71
2023/04/13 13:10:13;;;;;;;4.25;0.50;;;;;;;;;;5261718;28;20027;-72
2023/04/13 13:12:44;;;;;;;4.23;0.50;;;;;;;;;;5260705;28;20027;-72
2023/04/13 13:15:15;;;;;;;3.67;0.60;;;;;;;;;;5258470;28;20272;-73
2023/04/13 13:17:47;;;;;;;5.55;0.50;;;;;;;;;;5259415;28;20312;-72
2023/04/13 13:20:18;;;;;;;6.17;0.87;;;;;;;;;;5260493;28;20039;-72
2023/04/13 13:22:49;;;;;;;4.05;0.50;;;;;;;;;;5275687;28;20776;-71
2023/04/13 13:25:20;;;;;;;4.05;0.43;;;;;;;;;;5281550;28;20040;-72
2023/04/13 13:27:51;;;;;;;4.65;0.57;;;;;;;;;;5280397;28;20099;-71
2023/04/13 13:30:24;;;;;;;3.78;0.90;;;;;;;;;;5281653;28;20258;-71
2023/04/13 13:32:55;;;;;;;2.50;0.40;;;;;;;;;;5281351;28;20419;-72
2023/04/13 13:35:26;;;;;;;2.77;0.60;;;;;;;;;;5281241;28;20070;-72
2023/04/13 13:38:00;;;;;;;5.30;0.80;;;;;;;;;;5280869;28;20281;-73
2023/04/13 13:40:33;;;;;;;6.05;1.10;;;;;;;;;;5270015;28;20294;-73
2023/04/13 13:43:04;;;;;;;5.25;0.80;;;;;;;;;;5260091;28;20096;-74
2023/04/13 13:45:36;;;;;;;5.10;0.70;;;;;;;;;;5271780;28;20119;-74
2023/04/13 13:48:07;;;;;;;6.65;0.88;;;;;;;;;;5265166;28;20502;-74
2023/04/13 13:50:38;;;;;;;3.70;0.60;;;;;;;;;;5270361;28;20103;-73
2023/04/13 13:53:10;;;;;;;5.25;0.70;;;;;;;;;;5258158;28;20428;-74
2023/04/13 13:55:41;;;;;;;4.57;0.80;;;;;;;;;;5239835;28;20032;-75
2023/04/13 13:58:12;;;;;;;4.83;0.97;;;;;;;;;;5259119;28;20013;-74
2023/04/13 14:00:44;;;;;;;1.85;0.50;;;;;;;;;;5258549;28;20322;-75
2023/04/13 14:03:15;;;;;;;5.15;0.65;;;;;;;;;;5274728;28;20265;-73
2023/04/13 14:05:46;;;;;;;4.97;0.90;;;;;;;;;;5279907;28;20033;-74
2023/04/13 14:08:17;;;;;;;5.30;0.70;;;;;;;;;;5279926;28;20008;-74
2023/04/13 14:10:49;;;;;;;5.35;0.75;;;;;;;;;;5278566;28;20027;-75
2023/04/13 14:13:20;;;;;;;4.03;0.63;;;;;;;;;;5279991;28;20310;-74
2023/04/13 14:15:51;;;;;;;4.70;0.60;;;;;;;;;;5279841;28;20024;-74
2023/04/13 14:18:22;;;;;;;4.65;0.60;;;;;;;;;;5275455;28;20021;-75
2023/04/13 14:20:56;;;;;;;4.40;0.70;;;;;;;;;;5279882;28;20506;-73
2023/04/13 14:23:27;;;;;;;3.08;0.75;;;;;;;;;;5278998;28;20036;-72
2023/04/13 14:25:58;;;;;;;3.33;0.55;;;;;;;;;;5279495;28;20345;-74
2023/04/13 14:28:29;;;;;;;2.78;0.40;;;;;;;;;;5280392;28;20017;-75
2023/04/13 14:31:00;;;;;;;2.50;0.50;;;;;;;;;;5282745;28;20277;-74
2023/04/13 14:33:33;;;;;;;3.78;0.47;;;;;;;;;;5279238;28;20275;-74
2023/04/13 14:36:07;;;;;;;4.50;0.50;;;;;;;;;;5283346;28;20055;-73
2023/04/13 14:38:38;;;;;;;4.28;0.70;;;;;;;;;;5283545;28;20024;-74
2023/04/13 14:41:10;;;;;;;3.83;0.60;;;;;;;;;;5273709;28;20021;-74
2023/04/13 14:43:41;;;;;;;3.45;0.50;;;;;;;;;;5281296;28;20031;-75
2023/04/13 14:46:13;;;;;;;5.63;0.80;;;;;;;;;;5281766;28;20037;-74
2023/04/13 14:48:44;;;;;;;2.03;0.40;;;;;;;;;;5282126;28;20267;-74
2023/04/13 14:51:16;;;;;;;4.68;0.57;;;;;;;;;;5281461;28;20016;-70
2023/04/13 14:53:47;;;;;;;3.50;0.80;;;;;;;;;;5281819;28;20051;-75
2023/04/13 14:56:18;;;;;;;3.47;0.53;;;;;;;;;;5283149;28;20016;-75
2023/04/13 14:58:49;;;;;;;2.70;0.50;;;;;;;;;;5282220;28;20350;-74
2023/04/13 15:01:22;;;;;;;4.10;0.60;;;;;;;;;;5282438;28;20277;-74
2023/04/13 15:03:54;;;;;;;3.53;0.50;;;;;;;;;;5282978;28;20105;-74
2023/04/13 15:06:26;;;;;;;2.53;0.40;;;;;;;;;;5283438;28;20129;-74
2023/04/13 15:08:59;;;;;;;3.85;0.50;;;;;;;;;;5283365;28;20463;-74
2023/04/13 15:11:30;;;;;;;1.48;0.40;;;;;;;;;;5283140;28;20063;-74
2023/04/13 15:14:02;;;;;;;4.72;0.40;;;;;;;;;;5282499;28;20040;-74